Los Angeles International Airport
KLAX : now visible

Airfield :











YOU CAN JOIN US ON...

 
LOGIN :

Register | Disclaimer

   EN    FR    IT 

 









Legend :    VFR   Marginal VFR   IFR   Intensive IFR   Very Intensive IFR
Visi :
Ceiling :
>= 8 km
>= 3000ft
5 to 8 km
1000 to 3000 ft
1500m to 5 km
500 to 1000 ft
800 to 1500m
200 to 500 ft
< 800m
< 200 ft
Symbols :   Thunderstorms  Fog  Heavy snow  Heavy precipitations  Wind > 20 kt







- Airport Elevation : 125 ft
- IATA code : LAX


KLAX - Los Angeles International

CURRENT METAR :
  • 260453Z 23004KT 10SM FEW022 FEW140 SCT250 22/17 A2993 RMK AO2 SLP132 FU FEW022 T02220172 $

EXPIRED METARs :
  • 260353Z 22004KT 10SM FEW008 FEW012 SCT022 SCT140 BKN250 22/17 A2992 RMK AO2 SLP129 FU FEW012 FU SCT022 T02220172 $
  • 260253Z 24007KT 10SM FEW008 FEW012 SCT026 SCT140 22/18 A2991 RMK AO2 SLP125 FU FEW012 FU SCT026 T02170178 55003 $

TAF KLAX
Valid from the 26 at 06:00 until the 27 at 12:00 UTC


260531Z 2606/2712 VRB03KT P6SM SCT150
FM261300 VRB03KT 5SM BR SCT004 BKN150
FM261600 24006KT P6SM BKN150
FM262000 26012KT P6SM SCT150
FM270300 24006KT P6SM SKC
FM270700 VRB03KT P6SM SKC
No reported NOTAMs for that airfield.



MET'MAP, your aeronautical weather chart ! - Copyright ORBIFLY December 2007 - Disclaimer

ORBIFLY MET'MAP TEAM :

Programming & Development : Alexandra Zaïnal
Concept & Development : Baudouin d'Aumeries
Co-Development & Prog : Marc-Olivier Méhu
Technical & hardware support : Manuel Goepfert

Contact : metmap@orbifly.com




SOURCES & CREDITS :

   NOAA       Earth
Advisory